sensor_id;sensor_type;location;lat;lon;timestamp;temperature;humidity
21037;DHT22;10677;50.942;4.028;2023-06-10T00:02:08;24.80;99.90
21037;DHT22;10677;50.942;4.028;2023-06-10T00:04:34;24.70;99.90
21037;DHT22;10677;50.942;4.028;2023-06-10T00:07:03;24.70;99.90
21037;DHT22;10677;50.942;4.028;2023-06-10T00:09:29;24.70;99.90
21037;DHT22;10677;50.942;4.028;2023-06-10T00:11:55;24.80;99.90
21037;DHT22;10677;50.942;4.028;2023-06-10T00:14:22;24.70;99.90
21037;DHT22;10677;50.942;4.028;2023-06-10T00:16:47;24.80;99.90
21037;DHT22;10677;50.942;4.028;2023-06-10T00:19:13;24.70;99.90
21037;DHT22;10677;50.942;4.028;2023-06-10T00:21:39;24.70;99.90
21037;DHT22;10677;50.942;4.028;2023-06-10T00:24:08;24.60;99.90
21037;DHT22;10677;50.942;4.028;2023-06-10T00:26:41;24.60;99.90
21037;DHT22;10677;50.942;4.028;2023-06-10T00:29:07;24.50;99.90
21037;DHT22;10677;50.942;4.028;2023-06-10T00:31:34;24.50;99.90
21037;DHT22;10677;50.942;4.028;2023-06-10T00:34:00;24.40;99.90
21037;DHT22;10677;50.942;4.028;2023-06-10T00:36:26;24.40;99.90
21037;DHT22;10677;50.942;4.028;2023-06-10T00:38:52;24.40;99.90
21037;DHT22;10677;50.942;4.028;2023-06-10T00:41:18;24.30;99.90
21037;DHT22;10677;50.942;4.028;2023-06-10T00:43:43;24.30;99.90
21037;DHT22;10677;50.942;4.028;2023-06-10T00:46:10;24.20;99.90
21037;DHT22;10677;50.942;4.028;2023-06-10T00:48:37;24.20;99.90
21037;DHT22;10677;50.942;4.028;2023-06-10T00:51:05;24.20;99.90
21037;DHT22;10677;50.942;4.028;2023-06-10T00:53:32;24.00;99.90
21037;DHT22;10677;50.942;4.028;2023-06-10T00:55:58;24.00;99.90
21037;DHT22;10677;50.942;4.028;2023-06-10T00:58:24;24.00;99.90
21037;DHT22;10677;50.942;4.028;2023-06-10T01:00:51;24.10;99.90
21037;DHT22;10677;50.942;4.028;2023-06-10T01:03:17;24.00;99.90
21037;DHT22;10677;50.942;4.028;2023-06-10T01:05:44;24.10;99.90
21037;DHT22;10677;50.942;4.028;2023-06-10T01:08:35;24.10;99.90
21037;DHT22;10677;50.942;4.028;2023-06-10T01:11:07;24.00;99.90
21037;DHT22;10677;50.942;4.028;2023-06-10T01:13:36;23.90;99.90
21037;DHT22;10677;50.942;4.028;2023-06-10T01:16:02;23.80;99.90
21037;DHT22;10677;50.942;4.028;2023-06-10T01:18:31;23.80;99.90
21037;DHT22;10677;50.942;4.028;2023-06-10T01:20:57;23.70;99.90
21037;DHT22;10677;50.942;4.028;2023-06-10T01:23:23;23.70;99.90
21037;DHT22;10677;50.942;4.028;2023-06-10T01:31:25;23.70;99.90
21037;DHT22;10677;50.942;4.028;2023-06-10T01:34:00;23.70;99.90
21037;DHT22;10677;50.942;4.028;2023-06-10T01:36:26;23.60;99.90
21037;DHT22;10677;50.942;4.028;2023-06-10T01:38:54;23.60;99.90
21037;DHT22;10677;50.942;4.028;2023-06-10T01:41:21;23.50;99.90
21037;DHT22;10677;50.942;4.028;2023-06-10T01:43:47;23.60;99.90
21037;DHT22;10677;50.942;4.028;2023-06-10T01:46:14;23.60;99.90
21037;DHT22;10677;50.942;4.028;2023-06-10T01:48:41;23.50;99.90
21037;DHT22;10677;50.942;4.028;2023-06-10T01:51:07;23.40;99.90
21037;DHT22;10677;50.942;4.028;2023-06-10T01:53:33;23.40;99.90
21037;DHT22;10677;50.942;4.028;2023-06-10T01:55:59;23.40;99.90
21037;DHT22;10677;50.942;4.028;2023-06-10T01:58:25;23.40;99.90
21037;DHT22;10677;50.942;4.028;2023-06-10T02:00:51;23.30;99.90
21037;DHT22;10677;50.942;4.028;2023-06-10T02:03:16;23.30;99.90
21037;DHT22;10677;50.942;4.028;2023-06-10T02:05:42;23.20;99.90
21037;DHT22;10677;50.942;4.028;2023-06-10T02:08:08;23.20;99.90
21037;DHT22;10677;50.942;4.028;2023-06-10T02:10:34;23.20;99.90
21037;DHT22;10677;50.942;4.028;2023-06-10T02:12:59;23.20;99.90
21037;DHT22;10677;50.942;4.028;2023-06-10T02:15:25;23.20;99.90
21037;DHT22;10677;50.942;4.028;2023-06-10T02:17:52;23.10;99.90
21037;DHT22;10677;50.942;4.028;2023-06-10T02:20:18;23.00;99.90
21037;DHT22;10677;50.942;4.028;2023-06-10T02:22:43;23.00;99.90
21037;DHT22;10677;50.942;4.028;2023-06-10T02:25:09;22.90;99.90
21037;DHT22;10677;50.942;4.028;2023-06-10T02:27:35;22.90;99.90
21037;DHT22;10677;50.942;4.028;2023-06-10T02:30:01;22.80;99.90
21037;DHT22;10677;50.942;4.028;2023-06-10T02:32:26;22.70;99.90
21037;DHT22;10677;50.942;4.028;2023-06-10T02:34:52;22.70;99.90
21037;DHT22;10677;50.942;4.028;2023-06-10T02:37:18;22.70;99.90
21037;DHT22;10677;50.942;4.028;2023-06-10T02:39:44;22.70;99.90
21037;DHT22;10677;50.942;4.028;2023-06-10T02:42:10;22.70;99.90
21037;DHT22;10677;50.942;4.028;2023-06-10T02:44:36;22.70;99.90
21037;DHT22;10677;50.942;4.028;2023-06-10T02:47:02;22.70;99.90
21037;DHT22;10677;50.942;4.028;2023-06-10T02:49:27;22.60;99.90
21037;DHT22;10677;50.942;4.028;2023-06-10T02:51:53;22.60;99.90
21037;DHT22;10677;50.942;4.028;2023-06-10T02:54:20;22.60;99.90
21037;DHT22;10677;50.942;4.028;2023-06-10T02:56:46;22.60;99.90
21037;DHT22;10677;50.942;4.028;2023-06-10T02:59:13;22.60;99.90
21037;DHT22;10677;50.942;4.028;2023-06-10T03:01:39;22.60;99.90
21037;DHT22;10677;50.942;4.028;2023-06-10T03:04:05;22.60;99.90
21037;DHT22;10677;50.942;4.028;2023-06-10T03:06:31;22.50;99.90
21037;DHT22;10677;50.942;4.028;2023-06-10T03:08:59;22.50;99.90
21037;DHT22;10677;50.942;4.028;2023-06-10T03:11:24;22.40;99.90
21037;DHT22;10677;50.942;4.028;2023-06-10T03:13:51;22.40;99.90
21037;DHT22;10677;50.942;4.028;2023-06-10T03:16:17;22.40;99.90
21037;DHT22;10677;50.942;4.028;2023-06-10T03:18:44;22.30;99.90
21037;DHT22;10677;50.942;4.028;2023-06-10T03:21:10;22.30;99.90
21037;DHT22;10677;50.942;4.028;2023-06-10T03:23:35;22.20;99.90
21037;DHT22;10677;50.942;4.028;2023-06-10T03:26:02;22.20;99.90
21037;DHT22;10677;50.942;4.028;2023-06-10T03:28:28;22.20;99.90
21037;DHT22;10677;50.942;4.028;2023-06-10T03:30:53;22.20;99.90
21037;DHT22;10677;50.942;4.028;2023-06-10T03:33:20;22.10;99.90
21037;DHT22;10677;50.942;4.028;2023-06-10T03:35:45;22.10;99.90
21037;DHT22;10677;50.942;4.028;2023-06-10T03:38:11;22.00;99.90
21037;DHT22;10677;50.942;4.028;2023-06-10T03:40:36;22.00;99.90
21037;DHT22;10677;50.942;4.028;2023-06-10T03:43:02;22.00;99.90
21037;DHT22;10677;50.942;4.028;2023-06-10T03:45:28;22.00;99.90
21037;DHT22;10677;50.942;4.028;2023-06-10T03:47:53;22.00;99.90
21037;DHT22;10677;50.942;4.028;2023-06-10T03:50:19;21.90;99.90
21037;DHT22;10677;50.942;4.028;2023-06-10T03:52:45;21.90;99.90
21037;DHT22;10677;50.942;4.028;2023-06-10T03:55:12;21.90;99.90
21037;DHT22;10677;50.942;4.028;2023-06-10T03:57:39;21.80;99.90
21037;DHT22;10677;50.942;4.028;2023-06-10T04:00:05;21.90;99.90
21037;DHT22;10677;50.942;4.028;2023-06-10T04:02:37;21.90;99.90
21037;DHT22;10677;50.942;4.028;2023-06-10T04:05:02;21.80;99.90
21037;DHT22;10677;50.942;4.028;2023-06-10T04:07:28;21.80;99.90
21037;DHT22;10677;50.942;4.028;2023-06-10T04:09:54;21.70;99.90
21037;DHT22;10677;50.942;4.028;2023-06-10T04:12:20;21.70;99.90
21037;DHT22;10677;50.942;4.028;2023-06-10T04:14:45;21.70;99.90
21037;DHT22;10677;50.942;4.028;2023-06-10T04:17:11;21.80;99.90
21037;DHT22;10677;50.942;4.028;2023-06-10T04:19:36;21.70;99.90
21037;DHT22;10677;50.942;4.028;2023-06-10T04:22:02;21.80;99.90
21037;DHT22;10677;50.942;4.028;2023-06-10T04:24:29;21.80;99.90
21037;DHT22;10677;50.942;4.028;2023-06-10T04:26:55;21.80;99.90
21037;DHT22;10677;50.942;4.028;2023-06-10T04:29:21;21.70;99.90
21037;DHT22;10677;50.942;4.028;2023-06-10T04:31:46;21.70;99.90
21037;DHT22;10677;50.942;4.028;2023-06-10T04:34:12;21.70;99.90
21037;DHT22;10677;50.942;4.028;2023-06-10T04:36:38;21.70;99.90
21037;DHT22;10677;50.942;4.028;2023-06-10T04:39:04;21.80;99.90
21037;DHT22;10677;50.942;4.028;2023-06-10T04:41:31;21.80;99.90
21037;DHT22;10677;50.942;4.028;2023-06-10T04:43:57;21.80;99.90
21037;DHT22;10677;50.942;4.028;2023-06-10T04:46:23;21.80;99.90
21037;DHT22;10677;50.942;4.028;2023-06-10T04:48:49;21.90;99.90
21037;DHT22;10677;50.942;4.028;2023-06-10T04:51:15;22.00;99.90
21037;DHT22;10677;50.942;4.028;2023-06-10T04:53:42;21.90;99.90
21037;DHT22;10677;50.942;4.028;2023-06-10T04:56:07;22.00;99.90
21037;DHT22;10677;50.942;4.028;2023-06-10T04:58:33;22.00;99.90
21037;DHT22;10677;50.942;4.028;2023-06-10T05:00:59;22.10;99.90
21037;DHT22;10677;50.942;4.028;2023-06-10T05:03:25;22.10;99.90
21037;DHT22;10677;50.942;4.028;2023-06-10T05:05:51;22.10;99.90
21037;DHT22;10677;50.942;4.028;2023-06-10T05:08:18;22.10;99.90
21037;DHT22;10677;50.942;4.028;2023-06-10T05:10:43;22.20;99.90
21037;DHT22;10677;50.942;4.028;2023-06-10T05:13:09;22.20;99.90
21037;DHT22;10677;50.942;4.028;2023-06-10T05:15:35;22.30;99.90
21037;DHT22;10677;50.942;4.028;2023-06-10T05:18:00;22.30;99.90
21037;DHT22;10677;50.942;4.028;2023-06-10T05:20:28;22.40;99.90
21037;DHT22;10677;50.942;4.028;2023-06-10T05:22:54;22.40;99.90
21037;DHT22;10677;50.942;4.028;2023-06-10T05:25:20;22.50;99.90
21037;DHT22;10677;50.942;4.028;2023-06-10T05:27:46;22.50;99.90
21037;DHT22;10677;50.942;4.028;2023-06-10T05:30:12;22.60;99.90
21037;DHT22;10677;50.942;4.028;2023-06-10T05:32:38;22.70;99.90
21037;DHT22;10677;50.942;4.028;2023-06-10T05:35:04;22.60;99.90
21037;DHT22;10677;50.942;4.028;2023-06-10T05:37:30;22.70;99.90
21037;DHT22;10677;50.942;4.028;2023-06-10T05:39:55;22.80;99.90
21037;DHT22;10677;50.942;4.028;2023-06-10T05:42:21;22.80;99.90
21037;DHT22;10677;50.942;4.028;2023-06-10T05:44:47;22.80;99.90
21037;DHT22;10677;50.942;4.028;2023-06-10T05:47:12;22.80;99.90
21037;DHT22;10677;50.942;4.028;2023-06-10T05:49:38;22.90;99.90
21037;DHT22;10677;50.942;4.028;2023-06-10T05:52:04;23.00;99.90
21037;DHT22;10677;50.942;4.028;2023-06-10T05:54:30;23.10;99.90
21037;DHT22;10677;50.942;4.028;2023-06-10T05:56:56;23.10;99.90
21037;DHT22;10677;50.942;4.028;2023-06-10T05:59:21;23.00;99.90
21037;DHT22;10677;50.942;4.028;2023-06-10T06:01:48;23.00;99.90
21037;DHT22;10677;50.942;4.028;2023-06-10T06:04:15;23.20;99.90
21037;DHT22;10677;50.942;4.028;2023-06-10T06:06:41;23.20;99.90
21037;DHT22;10677;50.942;4.028;2023-06-10T06:09:07;23.20;99.90
21037;DHT22;10677;50.942;4.028;2023-06-10T06:11:34;23.20;99.90
21037;DHT22;10677;50.942;4.028;2023-06-10T06:14:00;23.20;99.90
21037;DHT22;10677;50.942;4.028;2023-06-10T06:16:25;23.30;99.90
21037;DHT22;10677;50.942;4.028;2023-06-10T06:18:51;23.30;99.90
21037;DHT22;10677;50.942;4.028;2023-06-10T06:21:17;23.40;99.90
21037;DHT22;10677;50.942;4.028;2023-06-10T06:23:42;23.40;99.90
21037;DHT22;10677;50.942;4.028;2023-06-10T06:26:08;23.50;99.90
21037;DHT22;10677;50.942;4.028;2023-06-10T06:28:34;23.60;99.90
21037;DHT22;10677;50.942;4.028;2023-06-10T06:30:59;23.60;99.90
21037;DHT22;10677;50.942;4.028;2023-06-10T06:33:25;23.70;99.90
21037;DHT22;10677;50.942;4.028;2023-06-10T06:35:51;23.70;99.90
21037;DHT22;10677;50.942;4.028;2023-06-10T06:38:17;23.90;99.90
21037;DHT22;10677;50.942;4.028;2023-06-10T06:40:43;23.90;99.90
21037;DHT22;10677;50.942;4.028;2023-06-10T06:43:08;24.00;99.90
21037;DHT22;10677;50.942;4.028;2023-06-10T06:45:34;24.10;99.90
21037;DHT22;10677;50.942;4.028;2023-06-10T06:48:00;24.10;99.90
21037;DHT22;10677;50.942;4.028;2023-06-10T06:50:25;24.10;99.90
21037;DHT22;10677;50.942;4.028;2023-06-10T06:52:51;24.20;99.90
21037;DHT22;10677;50.942;4.028;2023-06-10T06:55:17;24.30;99.90
21037;DHT22;10677;50.942;4.028;2023-06-10T06:57:42;24.30;99.90
21037;DHT22;10677;50.942;4.028;2023-06-10T07:00:08;24.30;99.90
21037;DHT22;10677;50.942;4.028;2023-06-10T07:02:35;24.30;99.90
21037;DHT22;10677;50.942;4.028;2023-06-10T07:05:01;24.40;99.90
21037;DHT22;10677;50.942;4.028;2023-06-10T07:07:27;24.50;99.90
21037;DHT22;10677;50.942;4.028;2023-06-10T07:09:52;24.60;99.90
21037;DHT22;10677;50.942;4.028;2023-06-10T07:12:18;24.70;99.90
21037;DHT22;10677;50.942;4.028;2023-06-10T07:14:44;24.70;99.90
21037;DHT22;10677;50.942;4.028;2023-06-10T07:17:10;24.80;99.90
21037;DHT22;10677;50.942;4.028;2023-06-10T07:19:36;24.90;99.90
21037;DHT22;10677;50.942;4.028;2023-06-10T07:22:01;25.00;99.90
21037;DHT22;10677;50.942;4.028;2023-06-10T07:24:27;24.90;99.90
21037;DHT22;10677;50.942;4.028;2023-06-10T07:26:52;25.00;99.90
21037;DHT22;10677;50.942;4.028;2023-06-10T07:29:18;25.10;99.90
21037;DHT22;10677;50.942;4.028;2023-06-10T07:31:44;25.10;99.90
21037;DHT22;10677;50.942;4.028;2023-06-10T07:34:09;25.10;99.90
21037;DHT22;10677;50.942;4.028;2023-06-10T07:36:35;25.10;99.90
21037;DHT22;10677;50.942;4.028;2023-06-10T07:39:02;25.10;99.90
21037;DHT22;10677;50.942;4.028;2023-06-10T07:41:27;25.10;99.90
21037;DHT22;10677;50.942;4.028;2023-06-10T07:43:53;25.20;99.90
21037;DHT22;10677;50.942;4.028;2023-06-10T07:46:22;25.30;99.90
21037;DHT22;10677;50.942;4.028;2023-06-10T07:48:48;25.40;99.90
21037;DHT22;10677;50.942;4.028;2023-06-10T07:51:16;25.40;99.90
21037;DHT22;10677;50.942;4.028;2023-06-10T07:53:42;25.50;99.90
21037;DHT22;10677;50.942;4.028;2023-06-10T07:56:07;25.40;99.90
21037;DHT22;10677;50.942;4.028;2023-06-10T07:58:33;25.50;99.90
21037;DHT22;10677;50.942;4.028;2023-06-10T08:00:59;25.60;99.90
21037;DHT22;10677;50.942;4.028;2023-06-10T08:03:24;25.70;99.90
21037;DHT22;10677;50.942;4.028;2023-06-10T08:05:50;25.70;99.90
21037;DHT22;10677;50.942;4.028;2023-06-10T08:08:15;25.70;99.90
21037;DHT22;10677;50.942;4.028;2023-06-10T08:10:41;25.80;99.90
21037;DHT22;10677;50.942;4.028;2023-06-10T08:13:08;25.90;99.90
21037;DHT22;10677;50.942;4.028;2023-06-10T08:15:34;26.00;99.90
21037;DHT22;10677;50.942;4.028;2023-06-10T08:17:59;26.10;99.90
21037;DHT22;10677;50.942;4.028;2023-06-10T08:20:27;26.10;99.90
21037;DHT22;10677;50.942;4.028;2023-06-10T08:22:52;26.20;99.90
21037;DHT22;10677;50.942;4.028;2023-06-10T08:25:18;26.10;99.90
21037;DHT22;10677;50.942;4.028;2023-06-10T08:27:44;26.20;99.90
21037;DHT22;10677;50.942;4.028;2023-06-10T08:30:11;26.40;99.90
21037;DHT22;10677;50.942;4.028;2023-06-10T08:32:36;26.60;99.90
21037;DHT22;10677;50.942;4.028;2023-06-10T08:35:03;26.60;99.90
21037;DHT22;10677;50.942;4.028;2023-06-10T08:37:29;26.70;99.90
21037;DHT22;10677;50.942;4.028;2023-06-10T08:39:56;26.70;99.90
21037;DHT22;10677;50.942;4.028;2023-06-10T08:42:32;26.80;99.90
21037;DHT22;10677;50.942;4.028;2023-06-10T08:45:02;26.80;99.90
21037;DHT22;10677;50.942;4.028;2023-06-10T08:47:30;26.90;99.90
21037;DHT22;10677;50.942;4.028;2023-06-10T08:50:03;26.90;99.90
21037;DHT22;10677;50.942;4.028;2023-06-10T08:52:35;27.00;99.90
21037;DHT22;10677;50.942;4.028;2023-06-10T08:55:11;27.00;99.90
21037;DHT22;10677;50.942;4.028;2023-06-10T08:57:37;27.00;99.90
21037;DHT22;10677;50.942;4.028;2023-06-10T09:00:05;27.10;99.90
21037;DHT22;10677;50.942;4.028;2023-06-10T09:02:31;27.10;99.90
21037;DHT22;10677;50.942;4.028;2023-06-10T09:05:02;27.20;99.90
21037;DHT22;10677;50.942;4.028;2023-06-10T09:07:30;27.40;99.90
21037;DHT22;10677;50.942;4.028;2023-06-10T09:09:57;27.30;99.90
21037;DHT22;10677;50.942;4.028;2023-06-10T09:12:24;27.50;99.90
21037;DHT22;10677;50.942;4.028;2023-06-10T09:14:50;27.80;99.90
21037;DHT22;10677;50.942;4.028;2023-06-10T09:17:16;27.80;99.90
21037;DHT22;10677;50.942;4.028;2023-06-10T09:19:44;27.70;99.90
21037;DHT22;10677;50.942;4.028;2023-06-10T09:22:09;27.60;99.90
21037;DHT22;10677;50.942;4.028;2023-06-10T09:24:36;27.70;99.90
21037;DHT22;10677;50.942;4.028;2023-06-10T09:27:06;27.70;99.90
21037;DHT22;10677;50.942;4.028;2023-06-10T09:29:52;27.70;99.90
21037;DHT22;10677;50.942;4.028;2023-06-10T09:32:18;27.80;99.90
21037;DHT22;10677;50.942;4.028;2023-06-10T09:34:45;27.90;99.90
21037;DHT22;10677;50.942;4.028;2023-06-10T09:37:11;28.00;99.90
21037;DHT22;10677;50.942;4.028;2023-06-10T09:39:39;28.10;99.90
21037;DHT22;10677;50.942;4.028;2023-06-10T09:42:23;28.10;99.90
21037;DHT22;10677;50.942;4.028;2023-06-10T09:44:50;28.40;99.90
21037;DHT22;10677;50.942;4.028;2023-06-10T09:47:21;28.30;99.90
21037;DHT22;10677;50.942;4.028;2023-06-10T09:49:51;28.30;99.90
21037;DHT22;10677;50.942;4.028;2023-06-10T09:52:26;28.20;99.90
21037;DHT22;10677;50.942;4.028;2023-06-10T09:54:53;28.40;99.90
21037;DHT22;10677;50.942;4.028;2023-06-10T09:57:22;28.50;99.90
21037;DHT22;10677;50.942;4.028;2023-06-10T09:59:48;28.60;99.90
21037;DHT22;10677;50.942;4.028;2023-06-10T10:02:17;28.60;99.90
21037;DHT22;10677;50.942;4.028;2023-06-10T10:04:44;28.70;99.90
21037;DHT22;10677;50.942;4.028;2023-06-10T10:07:10;28.70;99.90
21037;DHT22;10677;50.942;4.028;2023-06-10T10:09:40;28.70;99.90
21037;DHT22;10677;50.942;4.028;2023-06-10T10:12:10;28.80;99.90
21037;DHT22;10677;50.942;4.028;2023-06-10T10:14:37;28.90;99.90
21037;DHT22;10677;50.942;4.028;2023-06-10T10:17:07;28.90;99.90
21037;DHT22;10677;50.942;4.028;2023-06-10T10:19:40;28.80;99.90
21037;DHT22;10677;50.942;4.028;2023-06-10T10:22:13;28.80;99.90
21037;DHT22;10677;50.942;4.028;2023-06-10T10:24:49;29.00;99.90
21037;DHT22;10677;50.942;4.028;2023-06-10T10:27:18;29.20;99.90
21037;DHT22;10677;50.942;4.028;2023-06-10T10:29:47;29.30;99.90
21037;DHT22;10677;50.942;4.028;2023-06-10T10:32:16;29.40;99.90
21037;DHT22;10677;50.942;4.028;2023-06-10T10:35:08;29.50;99.90
21037;DHT22;10677;50.942;4.028;2023-06-10T10:37:35;29.60;99.90
21037;DHT22;10677;50.942;4.028;2023-06-10T10:40:02;29.60;99.90
21037;DHT22;10677;50.942;4.028;2023-06-10T10:42:30;29.60;99.90
21037;DHT22;10677;50.942;4.028;2023-06-10T10:44:56;29.60;99.90
21037;DHT22;10677;50.942;4.028;2023-06-10T10:47:22;29.50;99.90
21037;DHT22;10677;50.942;4.028;2023-06-10T10:49:52;29.70;99.90
21037;DHT22;10677;50.942;4.028;2023-06-10T10:52:19;29.70;99.90
21037;DHT22;10677;50.942;4.028;2023-06-10T10:54:46;29.80;99.90
21037;DHT22;10677;50.942;4.028;2023-06-10T10:57:14;29.90;99.90
21037;DHT22;10677;50.942;4.028;2023-06-10T11:02:17;30.20;99.90
21037;DHT22;10677;50.942;4.028;2023-06-10T11:04:47;30.10;99.90
21037;DHT22;10677;50.942;4.028;2023-06-10T11:07:13;30.60;99.90
21037;DHT22;10677;50.942;4.028;2023-06-10T11:12:39;30.60;99.90
21037;DHT22;10677;50.942;4.028;2023-06-10T11:15:05;30.90;99.90
21037;DHT22;10677;50.942;4.028;2023-06-10T11:17:31;31.10;99.90
21037;DHT22;10677;50.942;4.028;2023-06-10T11:19:58;30.90;99.90
21037;DHT22;10677;50.942;4.028;2023-06-10T11:22:24;31.00;99.90
21037;DHT22;10677;50.942;4.028;2023-06-10T11:24:50;31.20;99.90
21037;DHT22;10677;50.942;4.028;2023-06-10T11:32:33;31.50;99.90
21037;DHT22;10677;50.942;4.028;2023-06-10T11:35:04;31.70;99.90
21037;DHT22;10677;50.942;4.028;2023-06-10T11:37:30;31.70;99.90
21037;DHT22;10677;50.942;4.028;2023-06-10T11:39:56;31.70;99.90
21037;DHT22;10677;50.942;4.028;2023-06-10T11:42:24;31.90;99.90
21037;DHT22;10677;50.942;4.028;2023-06-10T11:44:52;32.10;99.90
21037;DHT22;10677;50.942;4.028;2023-06-10T11:47:20;32.40;99.90
21037;DHT22;10677;50.942;4.028;2023-06-10T11:49:56;32.60;99.70
21037;DHT22;10677;50.942;4.028;2023-06-10T11:52:30;32.60;98.50
21037;DHT22;10677;50.942;4.028;2023-06-10T11:55:03;32.80;98.10
21037;DHT22;10677;50.942;4.028;2023-06-10T11:57:34;33.00;98.50
21037;DHT22;10677;50.942;4.028;2023-06-10T12:00:05;32.90;97.60
21037;DHT22;10677;50.942;4.028;2023-06-10T12:02:31;33.00;97.20
21037;DHT22;10677;50.942;4.028;2023-06-10T12:05:10;33.00;96.80
21037;DHT22;10677;50.942;4.028;2023-06-10T12:07:36;32.90;96.50
21037;DHT22;10677;50.942;4.028;2023-06-10T12:10:02;33.00;97.70
21037;DHT22;10677;50.942;4.028;2023-06-10T12:12:27;33.20;96.30
21037;DHT22;10677;50.942;4.028;2023-06-10T12:14:54;33.20;94.20
21037;DHT22;10677;50.942;4.028;2023-06-10T12:19:56;33.40;94.60
21037;DHT22;10677;50.942;4.028;2023-06-10T12:22:22;33.40;93.90
21037;DHT22;10677;50.942;4.028;2023-06-10T12:24:59;33.40;93.90
21037;DHT22;10677;50.942;4.028;2023-06-10T12:27:25;33.30;93.40
21037;DHT22;10677;50.942;4.028;2023-06-10T12:29:54;33.50;93.20
21037;DHT22;10677;50.942;4.028;2023-06-10T12:32:20;33.70;93.30
21037;DHT22;10677;50.942;4.028;2023-06-10T12:34:50;33.90;92.30
21037;DHT22;10677;50.942;4.028;2023-06-10T12:37:27;33.90;92.20
21037;DHT22;10677;50.942;4.028;2023-06-10T12:39:52;33.60;91.60
21037;DHT22;10677;50.942;4.028;2023-06-10T12:42:22;33.50;91.40
21037;DHT22;10677;50.942;4.028;2023-06-10T12:44:53;33.30;92.00
21037;DHT22;10677;50.942;4.028;2023-06-10T12:47:19;33.50;91.90
21037;DHT22;10677;50.942;4.028;2023-06-10T12:49:45;33.70;91.60
21037;DHT22;10677;50.942;4.028;2023-06-10T12:52:11;33.70;91.20
21037;DHT22;10677;50.942;4.028;2023-06-10T12:54:36;33.50;91.50
21037;DHT22;10677;50.942;4.028;2023-06-10T12:57:03;33.60;91.40
21037;DHT22;10677;50.942;4.028;2023-06-10T12:59:28;33.70;91.60
21037;DHT22;10677;50.942;4.028;2023-06-10T13:01:54;33.90;91.00
21037;DHT22;10677;50.942;4.028;2023-06-10T13:04:21;34.10;90.60
21037;DHT22;10677;50.942;4.028;2023-06-10T13:06:47;34.30;90.70
21037;DHT22;10677;50.942;4.028;2023-06-10T13:09:13;34.30;90.60
21037;DHT22;10677;50.942;4.028;2023-06-10T13:11:39;34.20;90.90
21037;DHT22;10677;50.942;4.028;2023-06-10T13:14:05;34.50;90.80
21037;DHT22;10677;50.942;4.028;2023-06-10T13:16:32;35.30;90.70
21037;DHT22;10677;50.942;4.028;2023-06-10T13:18:58;35.90;89.00
21037;DHT22;10677;50.942;4.028;2023-06-10T13:21:24;36.40;88.00
21037;DHT22;10677;50.942;4.028;2023-06-10T13:23:50;37.40;86.00
21037;DHT22;10677;50.942;4.028;2023-06-10T13:26:16;36.90;85.80
21037;DHT22;10677;50.942;4.028;2023-06-10T13:28:43;36.30;85.30
21037;DHT22;10677;50.942;4.028;2023-06-10T13:31:09;35.90;85.20
21037;DHT22;10677;50.942;4.028;2023-06-10T13:33:34;37.20;84.00
21037;DHT22;10677;50.942;4.028;2023-06-10T13:36:00;39.00;81.90
21037;DHT22;10677;50.942;4.028;2023-06-10T13:38:26;41.20;78.80
21037;DHT22;10677;50.942;4.028;2023-06-10T13:40:51;41.90;77.20
21037;DHT22;10677;50.942;4.028;2023-06-10T13:43:17;42.70;73.50
21037;DHT22;10677;50.942;4.028;2023-06-10T13:45:42;43.20;72.40
21037;DHT22;10677;50.942;4.028;2023-06-10T13:48:08;44.20;69.10
21037;DHT22;10677;50.942;4.028;2023-06-10T13:50:34;43.00;66.90
21037;DHT22;10677;50.942;4.028;2023-06-10T13:53:00;41.70;68.20
21037;DHT22;10677;50.942;4.028;2023-06-10T13:55:25;40.50;68.40
21037;DHT22;10677;50.942;4.028;2023-06-10T13:57:51;40.90;69.40
21037;DHT22;10677;50.942;4.028;2023-06-10T14:00:17;41.60;67.90
21037;DHT22;10677;50.942;4.028;2023-06-10T14:02:43;42.10;67.00
21037;DHT22;10677;50.942;4.028;2023-06-10T14:05:08;42.10;67.50
21037;DHT22;10677;50.942;4.028;2023-06-10T14:07:34;43.50;66.40
21037;DHT22;10677;50.942;4.028;2023-06-10T14:10:00;45.20;65.30
21037;DHT22;10677;50.942;4.028;2023-06-10T14:12:26;46.10;62.40
21037;DHT22;10677;50.942;4.028;2023-06-10T14:14:52;45.10;62.40
21037;DHT22;10677;50.942;4.028;2023-06-10T14:17:17;42.50;63.20
21037;DHT22;10677;50.942;4.028;2023-06-10T14:19:43;42.50;64.60
21037;DHT22;10677;50.942;4.028;2023-06-10T14:22:09;43.00;63.50
21037;DHT22;10677;50.942;4.028;2023-06-10T14:24:35;43.60;63.10
21037;DHT22;10677;50.942;4.028;2023-06-10T14:27:04;44.20;61.80
21037;DHT22;10677;50.942;4.028;2023-06-10T14:29:30;43.30;62.30
21037;DHT22;10677;50.942;4.028;2023-06-10T14:31:57;43.80;62.20
21037;DHT22;10677;50.942;4.028;2023-06-10T14:34:22;43.50;62.00
21037;DHT22;10677;50.942;4.028;2023-06-10T14:36:54;42.20;63.00
21037;DHT22;10677;50.942;4.028;2023-06-10T14:39:19;41.80;62.50
21037;DHT22;10677;50.942;4.028;2023-06-10T14:41:45;41.80;63.40
21037;DHT22;10677;50.942;4.028;2023-06-10T14:44:11;43.20;62.90
21037;DHT22;10677;50.942;4.028;2023-06-10T14:46:36;44.40;61.30
21037;DHT22;10677;50.942;4.028;2023-06-10T14:49:02;44.00;59.90
21037;DHT22;10677;50.942;4.028;2023-06-10T14:51:28;44.80;60.20
21037;DHT22;10677;50.942;4.028;2023-06-10T14:53:53;44.70;59.60
21037;DHT22;10677;50.942;4.028;2023-06-10T14:56:19;43.60;59.40
21037;DHT22;10677;50.942;4.028;2023-06-10T14:58:45;42.20;61.00
21037;DHT22;10677;50.942;4.028;2023-06-10T15:01:10;41.50;62.20
21037;DHT22;10677;50.942;4.028;2023-06-10T15:03:36;41.80;61.90
21037;DHT22;10677;50.942;4.028;2023-06-10T15:06:02;42.60;61.30
21037;DHT22;10677;50.942;4.028;2023-06-10T15:08:28;43.40;60.50
21037;DHT22;10677;50.942;4.028;2023-06-10T15:10:54;43.40;60.30
21037;DHT22;10677;50.942;4.028;2023-06-10T15:13:20;44.10;60.00
21037;DHT22;10677;50.942;4.028;2023-06-10T15:15:45;43.30;59.40
21037;DHT22;10677;50.942;4.028;2023-06-10T15:18:11;43.60;60.40
21037;DHT22;10677;50.942;4.028;2023-06-10T15:20:37;43.80;60.40
21037;DHT22;10677;50.942;4.028;2023-06-10T15:23:02;43.70;59.50
21037;DHT22;10677;50.942;4.028;2023-06-10T15:25:28;41.80;60.70
21037;DHT22;10677;50.942;4.028;2023-06-10T15:27:54;40.90;60.80
21037;DHT22;10677;50.942;4.028;2023-06-10T15:30:20;41.70;62.50
21037;DHT22;10677;50.942;4.028;2023-06-10T15:32:45;42.30;60.90
21037;DHT22;10677;50.942;4.028;2023-06-10T15:35:11;43.00;61.10
21037;DHT22;10677;50.942;4.028;2023-06-10T15:37:37;44.50;59.60
21037;DHT22;10677;50.942;4.028;2023-06-10T15:40:03;44.70;58.50
21037;DHT22;10677;50.942;4.028;2023-06-10T15:42:29;44.00;58.60
21037;DHT22;10677;50.942;4.028;2023-06-10T15:44:54;44.70;58.70
21037;DHT22;10677;50.942;4.028;2023-06-10T15:47:20;43.50;59.20